Airfield :
LOGIN :

Register | Disclaimer

   EN    FR    IT 

 










Legend :    VFR   Marginal VFR   IFR   Intensive IFR   Very Intensive IFR
Visi :
Ceiling :
>= 8 km
>= 3000ft
5 to 8 km
1000 to 3000 ft
1500m to 5 km
500 to 1000 ft
800 to 1500m
200 to 500 ft
< 800m
< 200 ft
Symbols :   Thunderstorms  Fog  Heavy snow  Heavy precipitations  Wind > 20 kt
SIGMETs :     Misc.  Thunderstorms  Icing  Turbulence  Mountain Waves  Volcanic Ashes






- Airport Elevation : 1 ft


EGCK - Caernarfon

CURRENT METAR :
  • 241050Z 16006KT 5000 BR OVC003 06/06 Q1023

EXPIRED METARs :
  • 241020Z 16004KT 130V190 4000 -DZ OVC005 06/06 Q1024
  • 240950Z 17005KT 130V190 4200 -DZ OVC004 06/05 Q1024
  • 240920Z AUTO 17005KT 130V190 //// // ////// 06/05 Q////
  • 240850Z AUTO 16006KT 7000 OVC004/// 06/06 Q1024

TAF TAF EGCK
Valid from the 24 at 09:00 until the 24 at 18:00 UTC


240801Z 2409/2418 22004KT 6000 -RA BKN003
BECMG 2409/2412 SCT020
PROB40
TEMPO 2409/2418 4000 BR
TEMPO 2412/2418 BKN008



MET'MAP, your aeronautical weather chart ! - Copyright ORBIFLY December 2007 - Disclaimer

ORBIFLY MET'MAP TEAM :

Programming & Development : Alexandra Zaïnal
Concept & original design : Baudouin d'Aumeries
Assistance for programming : Marc-Olivier Méhu
Technical & hardware support : Manuel Goepfert

Contact : metmap@orbifly.com




SOURCES & CREDITS :

   NOAA